Time;durP1;ratioP1;P1;durP2;ratioP2;P2;SDS_P1;SDS_P2;PMS_P1;PMS_P2;Temp;Humidity;BMP_temperature;BMP_pressure;BME280_temperature;BME280_humidity;BME280_pressure;Samples;Min_cycle;Max_cycle;Signal;HPM_P1;HPM_P2
2022/07/12 00:01:18;;;;;;;7.57;4.50;;;13.40;99.90;;;;;;4992946;28;20750;-62
2022/07/12 00:03:44;;;;;;;4.65;3.80;;;13.30;99.90;;;;;;4975178;28;20290;-61
2022/07/12 00:06:11;;;;;;;7.57;4.43;;;13.30;99.90;;;;;;4992897;28;20038;-61
2022/07/12 00:08:37;;;;;;;134.30;13.02;;;13.30;99.90;;;;;;4992437;28;20564;-61
2022/07/12 00:11:06;;;;;;;522.97;30.90;;;13.30;99.90;;;;;;4975704;28;20065;-62
2022/07/12 00:13:32;;;;;;;109.13;13.23;;;13.30;99.90;;;;;;4975361;28;20046;-62
2022/07/12 00:15:58;;;;;;;140.38;13.45;;;13.30;99.90;;;;;;4992832;28;20197;-62
2022/07/12 00:18:24;;;;;;;135.20;12.88;;;13.20;99.90;;;;;;4975407;28;20046;-62
2022/07/12 00:20:50;;;;;;;192.32;17.48;;;13.20;99.90;;;;;;4972601;28;20042;-61
2022/07/12 00:23:17;;;;;;;266.63;15.00;;;13.20;99.90;;;;;;4992723;28;20125;-62
2022/07/12 00:25:43;;;;;;;79.47;7.65;;;13.20;99.90;;;;;;4975414;28;20056;-62
2022/07/12 00:28:08;;;;;;;240.43;15.00;;;13.00;99.90;;;;;;4974974;28;20043;-62
2022/07/12 00:30:34;;;;;;;118.80;6.80;;;13.00;99.90;;;;;;4992506;28;20038;-62
2022/07/12 00:33:00;;;;;;;31.83;3.30;;;12.90;99.90;;;;;;4974990;28;20046;-62
2022/07/12 00:35:26;;;;;;;8.45;1.63;;;12.90;99.90;;;;;;4974943;28;20038;-62
2022/07/12 00:37:52;;;;;;;2.95;1.83;;;12.80;99.90;;;;;;4975343;28;20042;-62
2022/07/12 00:40:18;;;;;;;4.35;3.50;;;12.80;99.90;;;;;;4959168;28;20633;-62
2022/07/12 00:42:44;;;;;;;5.57;3.33;;;12.80;99.90;;;;;;4992490;28;20339;-62
2022/07/12 00:45:10;;;;;;;5.28;3.28;;;12.80;99.90;;;;;;5006353;28;20042;-62
2022/07/12 00:47:44;;;;;;;5.97;3.90;;;12.80;99.90;;;;;;4994419;28;20076;-62
2022/07/12 00:50:19;;;;;;;4.68;3.08;;;12.70;99.90;;;;;;4975725;28;20124;-62
2022/07/12 00:52:47;;;;;;;3.38;2.40;;;12.70;99.90;;;;;;4994380;28;20033;-62
2022/07/12 00:55:14;;;;;;;3.97;2.47;;;12.60;99.90;;;;;;4994568;28;20050;-62
2022/07/12 00:57:43;;;;;;;3.40;2.50;;;12.60;99.90;;;;;;4994598;28;20037;-62
2022/07/12 01:00:13;;;;;;;5.30;3.03;;;12.60;99.90;;;;;;4994232;28;20042;-63
2022/07/12 01:02:40;;;;;;;3.90;2.53;;;12.50;99.90;;;;;;5012127;28;20092;-62
2022/07/12 01:05:08;;;;;;;5.72;2.42;;;12.50;99.90;;;;;;4991932;28;20194;-62
2022/07/12 01:07:35;;;;;;;5.35;2.88;;;12.50;99.90;;;;;;4978091;28;20137;-62
2022/07/12 01:10:02;;;;;;;5.57;2.88;;;12.40;99.90;;;;;;5011718;28;20033;-62
2022/07/12 01:12:29;;;;;;;4.60;3.08;;;12.40;99.90;;;;;;5011796;28;20041;-62
2022/07/12 01:14:56;;;;;;;4.88;3.40;;;12.40;99.90;;;;;;4993988;28;20037;-62
2022/07/12 01:17:24;;;;;;;5.05;2.58;;;12.30;99.90;;;;;;5011985;28;20400;-62
2022/07/12 01:19:51;;;;;;;26.95;3.00;;;12.30;99.90;;;;;;4993203;28;20046;-62
2022/07/12 01:22:18;;;;;;;5.38;2.40;;;12.20;99.90;;;;;;4997981;28;20141;-62
2022/07/12 01:24:45;;;;;;;3.38;1.85;;;12.10;99.90;;;;;;5015572;28;20073;-62
2022/07/12 01:27:12;;;;;;;7.28;2.92;;;12.00;99.90;;;;;;4981978;28;20100;-62
2022/07/12 01:29:39;;;;;;;5.15;2.95;;;12.00;99.90;;;;;;4997817;28;20514;-62
2022/07/12 01:32:24;;;;;;;30.60;4.70;;;12.00;99.90;;;;;;5015370;28;20129;-62
2022/07/12 01:34:51;;;;;;;59.97;5.22;;;11.90;99.90;;;;;;5015214;28;20076;-62
2022/07/12 01:37:19;;;;;;;34.85;4.15;;;12.00;99.90;;;;;;5015341;28;20313;-62
2022/07/12 01:39:47;;;;;;;8.30;3.13;;;11.90;99.90;;;;;;4997868;28;20033;-62
2022/07/12 01:42:13;;;;;;;8.27;3.15;;;11.90;99.90;;;;;;5015038;28;20527;-63
2022/07/12 01:44:39;;;;;;;13.20;3.15;;;11.90;99.90;;;;;;4987581;28;20488;-62
2022/07/12 01:47:05;;;;;;;7.22;3.65;;;11.80;99.90;;;;;;4977991;28;20050;-62
2022/07/12 01:49:31;;;;;;;107.65;8.05;;;11.80;99.90;;;;;;4977096;28;20046;-62
2022/07/12 01:51:58;;;;;;;68.30;6.05;;;11.70;99.90;;;;;;4960508;28;20202;-62
2022/07/12 01:54:25;;;;;;;104.53;7.20;;;11.70;99.90;;;;;;4977970;28;20149;-62
2022/07/12 01:56:55;;;;;;;82.95;6.35;;;11.80;99.90;;;;;;4961965;28;20050;-62
2022/07/12 01:59:21;;;;;;;46.30;4.25;;;11.70;99.90;;;;;;4977980;28;20046;-62
2022/07/12 02:01:48;;;;;;;32.38;4.00;;;11.70;99.90;;;;;;4995308;28;20038;-62
2022/07/12 02:04:17;;;;;;;38.90;4.47;;;11.70;99.90;;;;;;5005328;28;20058;-62
2022/07/12 02:06:47;;;;;;;5.47;3.35;;;11.70;99.90;;;;;;4980986;28;20519;-62
2022/07/12 02:09:14;;;;;;;29.00;4.88;;;11.70;99.90;;;;;;4996976;28;20128;-62
2022/07/12 02:11:40;;;;;;;11.73;3.80;;;11.70;99.90;;;;;;4997268;28;20060;-62
2022/07/12 02:14:07;;;;;;;21.10;4.80;;;11.70;99.90;;;;;;4997176;28;20044;-62
2022/07/12 02:16:33;;;;;;;9.73;4.10;;;11.70;99.90;;;;;;4996943;28;20562;-62
2022/07/12 02:18:59;;;;;;;10.63;3.60;;;11.70;99.90;;;;;;4997106;28;20045;-62
2022/07/12 02:21:25;;;;;;;17.95;3.67;;;11.70;99.90;;;;;;5011926;28;20042;-62
2022/07/12 02:23:51;;;;;;;19.83;3.78;;;11.70;99.90;;;;;;4997071;28;20121;-62
2022/07/12 02:26:17;;;;;;;25.73;3.85;;;11.70;99.90;;;;;;4996698;28;20488;-62
2022/07/12 02:28:43;;;;;;;59.80;6.40;;;11.60;99.90;;;;;;5014556;28;20045;-62
2022/07/12 02:31:09;;;;;;;84.68;8.68;;;11.60;99.90;;;;;;4996573;28;20096;-62
2022/07/12 02:33:35;;;;;;;108.40;9.32;;;11.60;99.90;;;;;;4996942;28;20053;-62
2022/07/12 02:36:01;;;;;;;156.40;12.02;;;11.50;99.90;;;;;;4980574;28;20088;-62
2022/07/12 02:38:27;;;;;;;101.75;8.55;;;11.50;99.90;;;;;;4980301;28;20045;-62
2022/07/12 02:40:53;;;;;;;94.68;7.35;;;11.50;99.90;;;;;;5014198;28;20046;-61
2022/07/12 02:43:26;;;;;;;134.65;10.73;;;11.50;99.90;;;;;;4996712;28;20133;-61
2022/07/12 02:45:53;;;;;;;67.07;7.85;;;11.60;99.90;;;;;;4977058;28;20038;-62
2022/07/12 02:48:19;;;;;;;42.00;4.57;;;11.60;99.90;;;;;;4976985;28;20045;-61
2022/07/12 02:50:46;;;;;;;37.40;5.15;;;11.60;99.90;;;;;;4958680;28;20038;-61
2022/07/12 02:53:12;;;;;;;45.45;3.85;;;11.50;99.90;;;;;;4976800;28;20159;-61
2022/07/12 02:55:38;;;;;;;66.65;6.78;;;11.50;99.90;;;;;;4994393;28;20605;-61
2022/07/12 02:58:07;;;;;;;27.65;3.70;;;11.50;99.90;;;;;;4976763;28;20050;-61
2022/07/12 03:00:34;;;;;;;74.82;5.88;;;11.60;99.90;;;;;;4992831;28;20050;-61
2022/07/12 03:03:01;;;;;;;41.13;6.25;;;11.70;99.90;;;;;;4976467;28;20046;-61
2022/07/12 03:05:27;;;;;;;28.90;5.60;;;11.70;99.90;;;;;;4976757;28;20050;-61
2022/07/12 03:07:53;;;;;;;35.33;6.15;;;11.80;99.90;;;;;;4976589;28;20593;-61
2022/07/12 03:10:19;;;;;;;42.83;7.78;;;11.80;99.90;;;;;;4976722;28;20100;-61
2022/07/12 03:12:45;;;;;;;39.75;5.50;;;11.80;99.90;;;;;;4976162;28;20050;-61
2022/07/12 03:15:11;;;;;;;40.25;7.55;;;11.90;99.90;;;;;;4976561;28;20432;-61
2022/07/12 03:17:37;;;;;;;25.00;4.53;;;11.90;99.90;;;;;;4976443;28;20042;-60
2022/07/12 03:20:06;;;;;;;38.58;6.22;;;11.90;99.90;;;;;;4974092;28;20057;-61
2022/07/12 03:22:32;;;;;;;41.80;6.67;;;11.90;99.90;;;;;;4994010;28;20041;-61
2022/07/12 03:24:58;;;;;;;33.97;5.40;;;11.80;99.90;;;;;;4993804;28;20266;-61
2022/07/12 03:27:25;;;;;;;29.35;4.32;;;11.80;99.90;;;;;;4976229;28;20511;-61
2022/07/12 03:29:51;;;;;;;51.33;7.22;;;11.90;99.90;;;;;;4976451;28;20034;-61
2022/07/12 03:32:17;;;;;;;43.20;6.03;;;11.80;99.90;;;;;;4993522;28;20104;-61
2022/07/12 03:34:42;;;;;;;37.15;4.78;;;11.90;99.90;;;;;;4976301;28;20501;-61
2022/07/12 03:37:08;;;;;;;46.47;6.25;;;11.90;99.90;;;;;;4993601;28;20042;-61
2022/07/12 03:39:34;;;;;;;54.38;8.30;;;11.90;99.90;;;;;;4993441;28;20487;-61
2022/07/12 03:42:00;;;;;;;54.03;7.38;;;11.90;99.90;;;;;;4993046;28;20049;-61
2022/07/12 03:44:26;;;;;;;57.35;7.30;;;11.90;99.90;;;;;;5001354;28;20041;-61
2022/07/12 03:46:51;;;;;;;50.17;6.22;;;12.00;99.90;;;;;;4995191;28;20047;-61
2022/07/12 03:49:17;;;;;;;64.80;9.00;;;11.90;99.90;;;;;;4995189;28;20037;-60
2022/07/12 03:51:43;;;;;;;67.22;7.93;;;12.00;99.90;;;;;;4992508;28;20408;-60
2022/07/12 03:54:09;;;;;;;38.35;5.65;;;12.00;99.90;;;;;;4979274;28;20099;-60
2022/07/12 03:59:20;;;;;;;34.67;7.00;;;12.00;99.90;;;;;;4995068;28;20081;-60
2022/07/12 04:01:46;;;;;;;9.43;3.47;;;12.00;99.90;;;;;;4995005;28;20499;-61
2022/07/12 04:04:12;;;;;;;11.68;3.70;;;12.00;99.90;;;;;;4995061;28;20100;-61
2022/07/12 04:06:38;;;;;;;49.45;8.30;;;12.00;99.90;;;;;;4994847;28;20484;-61
2022/07/12 04:09:05;;;;;;;12.88;3.67;;;12.00;99.90;;;;;;4994918;28;20041;-60
2022/07/12 04:11:31;;;;;;;6.82;3.78;;;12.00;99.90;;;;;;4994781;28;20454;-61
2022/07/12 04:13:57;;;;;;;6.03;3.10;;;12.00;99.90;;;;;;5012404;28;20107;-60
2022/07/12 04:16:23;;;;;;;6.38;3.92;;;12.00;99.90;;;;;;4994749;28;20046;-61
2022/07/12 04:18:49;;;;;;;7.05;3.22;;;12.10;99.90;;;;;;4994891;28;20104;-61
2022/07/12 04:21:15;;;;;;;6.68;3.03;;;12.10;99.90;;;;;;4992009;28;20686;-61
2022/07/12 04:23:41;;;;;;;8.00;3.20;;;12.10;99.90;;;;;;4994733;28;20034;-61
2022/07/12 04:26:07;;;;;;;8.52;3.65;;;12.10;99.90;;;;;;4978411;28;20049;-61
2022/07/12 04:28:34;;;;;;;13.70;4.55;;;12.10;99.90;;;;;;5012353;28;20239;-61
2022/07/12 04:31:00;;;;;;;16.48;3.95;;;12.00;99.90;;;;;;5012105;28;20046;-61
2022/07/12 04:33:26;;;;;;;34.60;5.90;;;12.10;99.90;;;;;;4994579;28;20053;-61
2022/07/12 04:35:51;;;;;;;34.13;5.47;;;12.10;99.90;;;;;;4993965;28;20347;-61
2022/07/12 04:38:17;;;;;;;72.32;7.70;;;12.20;99.90;;;;;;4994363;28;20038;-61
2022/07/12 04:40:43;;;;;;;32.25;5.00;;;12.20;99.90;;;;;;4994173;28;20049;-60
2022/07/12 04:43:09;;;;;;;35.55;7.22;;;12.30;99.90;;;;;;5012019;28;20038;-61
2022/07/12 04:45:35;;;;;;;13.45;6.30;;;12.40;99.90;;;;;;4977225;28;20385;-61
2022/07/12 04:48:01;;;;;;;14.15;6.53;;;12.50;99.90;;;;;;4975177;28;20509;-61
2022/07/12 04:50:27;;;;;;;7.68;5.32;;;12.60;99.90;;;;;;4956781;28;20500;-61
2022/07/12 04:52:52;;;;;;;10.80;5.72;;;12.80;99.90;;;;;;4975131;28;20689;-61
2022/07/12 04:55:18;;;;;;;9.50;5.93;;;12.90;99.90;;;;;;4979066;28;20591;-61
2022/07/12 04:57:44;;;;;;;14.38;6.30;;;13.10;99.90;;;;;;4996608;28;20101;-61
2022/07/12 05:03:51;;;;;;;10.27;6.05;;;13.50;99.90;;;;;;4997169;28;20487;-61
2022/07/12 05:06:18;;;;;;;9.95;7.28;;;13.70;99.90;;;;;;4979678;28;20125;-61
2022/07/12 05:08:43;;;;;;;11.05;7.30;;;13.90;99.90;;;;;;4979862;28;20082;-61
2022/07/12 05:11:09;;;;;;;15.00;7.85;;;14.10;99.90;;;;;;4997276;28;20035;-62
2022/07/12 05:13:35;;;;;;;13.45;7.70;;;14.20;99.90;;;;;;4979841;28;20468;-62
2022/07/12 05:16:01;;;;;;;11.23;6.80;;;14.30;99.90;;;;;;4997126;28;20045;-62
2022/07/12 05:18:27;;;;;;;11.43;7.03;;;14.40;99.90;;;;;;4979513;28;20120;-61
2022/07/12 05:20:52;;;;;;;9.27;7.20;;;14.40;99.90;;;;;;4994748;28;20053;-62
2022/07/12 05:23:19;;;;;;;8.32;5.78;;;14.50;99.90;;;;;;4979250;28;20045;-62
2022/07/12 05:25:45;;;;;;;8.68;6.20;;;14.50;99.90;;;;;;4996731;28;20534;-62
2022/07/12 05:28:11;;;;;;;8.45;6.13;;;14.60;99.90;;;;;;4979267;28;20054;-61
2022/07/12 05:30:37;;;;;;;8.60;6.25;;;14.60;99.90;;;;;;4979309;28;20046;-62
2022/07/12 05:33:03;;;;;;;11.20;7.15;;;14.70;99.90;;;;;;4979240;28;20046;-61
2022/07/12 05:35:28;;;;;;;10.05;5.40;;;14.70;99.90;;;;;;4962312;28;20481;-61
2022/07/12 05:37:54;;;;;;;8.77;5.95;;;14.70;99.90;;;;;;4978440;28;20051;-61
2022/07/12 05:40:20;;;;;;;9.98;7.00;;;14.80;99.90;;;;;;4978195;28;20054;-61
2022/07/12 05:42:46;;;;;;;8.90;6.53;;;14.80;99.90;;;;;;4978014;28;20294;-61
2022/07/12 05:45:12;;;;;;;10.75;6.63;;;14.90;99.90;;;;;;4992421;28;20381;-61
2022/07/12 05:47:38;;;;;;;8.93;6.85;;;15.00;99.90;;;;;;4997533;28;20519;-61
2022/07/12 05:50:05;;;;;;;8.60;7.10;;;15.10;99.90;;;;;;4995112;28;20065;-61
2022/07/12 05:55:15;;;;;;;10.30;7.43;;;15.30;99.90;;;;;;5014798;28;20050;-61
2022/07/12 05:57:40;;;;;;;11.55;7.80;;;15.40;99.90;;;;;;4994044;28;20046;-61
2022/07/12 06:00:07;;;;;;;8.80;7.00;;;15.40;99.90;;;;;;4986030;28;20464;-61
2022/07/12 06:02:33;;;;;;;10.25;7.60;;;15.50;99.90;;;;;;4977672;28;20046;-61
2022/07/12 06:04:58;;;;;;;11.05;8.00;;;15.60;99.90;;;;;;4978224;28;20056;-61
2022/07/12 06:07:24;;;;;;;12.02;9.32;;;15.80;99.90;;;;;;4997339;28;20523;-61
2022/07/12 06:09:50;;;;;;;12.45;8.93;;;15.90;99.90;;;;;;5014632;28;20455;-61
2022/07/12 06:12:16;;;;;;;12.23;9.23;;;16.00;99.90;;;;;;5014627;28;20081;-61
2022/07/12 06:14:42;;;;;;;9.35;8.13;;;16.10;99.90;;;;;;5014591;28;20042;-62
2022/07/12 06:17:08;;;;;;;10.35;8.63;;;16.30;99.90;;;;;;4978963;28;20416;-63
2022/07/12 06:19:33;;;;;;;9.18;8.25;;;16.40;99.90;;;;;;4977331;28;20104;-63
2022/07/12 06:22:00;;;;;;;7.78;6.93;;;16.70;99.90;;;;;;4975346;28;20042;-64
2022/07/12 06:24:26;;;;;;;9.02;6.53;;;17.00;99.90;;;;;;4994799;28;20038;-62
2022/07/12 06:26:51;;;;;;;7.05;6.18;;;17.10;99.90;;;;;;4977400;28;20378;-63
2022/07/12 06:29:17;;;;;;;8.48;6.57;;;17.40;99.90;;;;;;4977305;28;20508;-64
2022/07/12 06:31:43;;;;;;;5.93;4.78;;;17.60;99.90;;;;;;4961136;28;20468;-65
2022/07/12 06:34:09;;;;;;;5.50;4.43;;;17.80;99.90;;;;;;4994529;28;20049;-63
2022/07/12 06:36:35;;;;;;;5.30;4.30;;;18.00;99.90;;;;;;4977372;28;20393;-64
2022/07/12 06:39:00;;;;;;;4.90;4.40;;;18.20;99.90;;;;;;4977175;28;20519;-64
2022/07/12 06:41:29;;;;;;;6.63;4.82;;;18.30;99.90;;;;;;4977169;28;20404;-64
2022/07/12 06:43:55;;;;;;;4.82;4.32;;;18.40;99.90;;;;;;4980713;28;20113;-64
2022/07/12 06:46:21;;;;;;;4.85;3.97;;;18.60;99.90;;;;;;5014265;28;20046;-65
2022/07/12 06:48:47;;;;;;;6.10;4.72;;;18.70;99.90;;;;;;4996379;28;20052;-63
2022/07/12 06:51:12;;;;;;;7.07;4.22;;;18.80;99.90;;;;;;4994056;28;20495;-63
2022/07/12 06:53:38;;;;;;;6.25;4.85;;;18.90;99.90;;;;;;4996085;28;20049;-64
2022/07/12 06:56:04;;;;;;;7.15;4.60;;;18.90;99.90;;;;;;4996220;28;20057;-64
2022/07/12 06:58:30;;;;;;;5.22;4.72;;;18.90;99.90;;;;;;5013693;28;20125;-64
2022/07/12 07:00:56;;;;;;;5.32;4.70;;;18.90;99.90;;;;;;4995882;28;20129;-64
2022/07/12 07:03:22;;;;;;;5.25;4.75;;;18.80;99.90;;;;;;4995179;28;20081;-64
2022/07/12 07:05:47;;;;;;;5.75;4.40;;;18.80;99.90;;;;;;5013790;28;20045;-65
2022/07/12 07:08:13;;;;;;;4.95;4.45;;;18.70;99.90;;;;;;4996058;28;20078;-64
2022/07/12 07:10:39;;;;;;;5.18;4.68;;;18.80;99.90;;;;;;5013971;28;20042;-64
2022/07/12 07:13:07;;;;;;;5.47;4.95;;;18.90;99.90;;;;;;4996218;28;20041;-65
2022/07/12 07:15:33;;;;;;;6.43;5.00;;;19.10;99.90;;;;;;4980059;28;20523;-64
2022/07/12 07:17:59;;;;;;;5.68;4.82;;;19.30;99.90;;;;;;4995865;28;20081;-64
2022/07/12 07:20:25;;;;;;;4.80;4.25;;;19.70;99.90;;;;;;4994380;28;20166;-64
2022/07/12 07:22:50;;;;;;;4.97;4.43;;;20.10;99.90;;;;;;4980462;28;20042;-65
2022/07/12 07:25:16;;;;;;;5.00;4.50;;;20.40;99.90;;;;;;4996657;28;20141;-63
2022/07/12 07:27:44;;;;;;;5.35;4.75;;;20.80;99.90;;;;;;4996056;28;20037;-64
2022/07/12 07:32:56;;;;;;;4.80;4.35;;;21.30;99.90;;;;;;4983245;28;20381;-64
2022/07/12 07:35:22;;;;;;;4.78;4.13;;;21.40;99.90;;;;;;4977075;28;20137;-65
2022/07/12 07:37:48;;;;;;;6.93;4.20;;;21.40;99.90;;;;;;4977795;28;20121;-65
2022/07/12 07:40:14;;;;;;;4.63;3.95;;;21.40;99.90;;;;;;4960769;28;20054;-63
2022/07/12 07:42:39;;;;;;;6.60;4.50;;;21.40;99.90;;;;;;4976804;28;20437;-63
2022/07/12 07:45:07;;;;;;;6.88;4.82;;;21.30;99.90;;;;;;4989520;28;20046;-64
2022/07/12 07:47:48;;;;;;;5.05;4.57;;;21.30;99.90;;;;;;4996417;28;20144;-63
2022/07/12 07:50:14;;;;;;;5.10;4.43;;;21.30;99.90;;;;;;4975536;28;20408;-63
2022/07/12 07:52:40;;;;;;;4.70;4.20;;;21.30;99.90;;;;;;4976604;28;20077;-65
2022/07/12 07:55:06;;;;;;;4.95;4.45;;;21.40;99.90;;;;;;4993903;28;20073;-64
2022/07/12 07:57:32;;;;;;;5.13;4.60;;;21.40;99.90;;;;;;4976470;28;20463;-63
2022/07/12 07:59:58;;;;;;;4.57;4.13;;;21.40;99.90;;;;;;4993915;28;20082;-63
2022/07/12 08:02:24;;;;;;;6.10;4.32;;;21.50;99.90;;;;;;4993789;28;20054;-63
2022/07/12 08:04:50;;;;;;;5.35;4.15;;;21.50;99.90;;;;;;4976175;28;20397;-64
2022/07/12 08:07:18;;;;;;;5.55;4.47;;;21.40;99.90;;;;;;4976542;28;20046;-63
2022/07/12 08:09:43;;;;;;;5.22;4.60;;;21.40;99.90;;;;;;4960431;28;20185;-64
2022/07/12 08:12:09;;;;;;;5.80;4.75;;;21.30;99.90;;;;;;4993627;28;20693;-63
2022/07/12 08:14:35;;;;;;;6.22;5.45;;;21.20;99.90;;;;;;4976169;28;20053;-63
2022/07/12 08:17:01;;;;;;;8.15;7.25;;;21.20;99.90;;;;;;4976228;28;20121;-63
2022/07/12 08:19:27;;;;;;;10.15;6.85;;;21.30;99.90;;;;;;4993412;28;20046;-63
2022/07/12 08:21:53;;;;;;;9.02;6.60;;;21.30;99.90;;;;;;4973827;28;20053;-63
2022/07/12 08:24:19;;;;;;;10.45;6.80;;;21.30;99.90;;;;;;4976114;28;20046;-64
2022/07/12 08:26:44;;;;;;;10.50;8.20;;;21.30;99.90;;;;;;4959836;28;20045;-64
2022/07/12 08:29:10;;;;;;;12.77;9.25;;;21.40;99.90;;;;;;4993103;28;20053;-66
2022/07/12 08:31:36;;;;;;;13.70;8.63;;;21.70;99.90;;;;;;4976199;28;20093;-64
2022/07/12 08:34:02;;;;;;;15.45;11.18;;;22.10;99.90;;;;;;4993290;28;20057;-63
2022/07/12 08:36:28;;;;;;;9.70;7.10;;;22.40;99.90;;;;;;4975865;28;20125;-64
2022/07/12 08:38:54;;;;;;;8.93;7.18;;;22.80;99.90;;;;;;4993317;28;20074;-63
2022/07/12 08:41:20;;;;;;;8.85;6.40;;;23.10;99.90;;;;;;4993129;28;20038;-63
2022/07/12 08:43:46;;;;;;;8.70;6.20;;;23.30;99.90;;;;;;4975770;28;20105;-64
2022/07/12 08:46:13;;;;;;;7.68;5.68;;;23.50;99.90;;;;;;4975557;28;20038;-64
2022/07/12 08:48:41;;;;;;;6.50;5.03;;;23.60;99.90;;;;;;4993114;28;20046;-64
2022/07/12 08:51:12;;;;;;;7.55;5.50;;;23.80;99.90;;;;;;4990862;28;20038;-66
2022/07/12 08:53:39;;;;;;;6.47;5.18;;;24.00;99.90;;;;;;4975659;28;20062;-63
2022/07/12 08:56:27;;;;;;;6.72;5.47;;;24.30;99.90;;;;;;4975409;28;20081;-65
2022/07/12 08:59:10;;;;;;;6.60;5.70;;;24.50;99.90;;;;;;4975353;28;20046;-65
2022/07/12 09:01:41;;;;;;;8.48;5.65;;;24.70;99.90;;;;;;4959352;28;20587;-64
2022/07/12 09:04:29;;;;;;;9.10;5.88;;;24.70;99.90;;;;;;4975181;28;20061;-66
2022/07/12 09:06:54;;;;;;;6.57;5.22;;;24.70;99.90;;;;;;4958562;28;20520;-63
2022/07/12 09:09:27;;;;;;;6.57;5.15;;;24.80;99.90;;;;;;4974969;28;20038;-65
2022/07/12 09:11:54;;;;;;;6.43;4.70;;;24.90;99.90;;;;;;4975123;28;20050;-65
2022/07/12 09:14:20;;;;;;;4.93;4.40;;;25.10;99.90;;;;;;4959686;28;20092;-65
2022/07/12 09:17:00;;;;;;;5.35;4.43;;;25.30;99.90;;;;;;4975640;28;20045;-64
2022/07/12 09:19:25;;;;;;;5.65;4.32;;;25.30;99.90;;;;;;4959582;28;20547;-65
2022/07/12 09:21:54;;;;;;;5.25;4.60;;;25.20;99.90;;;;;;4989590;28;20129;-64
2022/07/12 09:24:25;;;;;;;5.97;4.40;;;25.20;99.90;;;;;;4974586;28;20057;-63
2022/07/12 09:26:56;;;;;;;6.07;4.70;;;25.30;99.90;;;;;;4958481;28;20481;-63
2022/07/12 09:29:22;;;;;;;8.23;6.13;;;25.60;99.90;;;;;;4992072;28;20038;-64
2022/07/12 09:37:20;;;;;;;11.10;7.25;;;25.70;99.90;;;;;;4974987;28;20049;-65
2022/07/12 09:39:47;;;;;;;7.38;5.18;;;25.90;99.90;;;;;;4974482;28;20042;-65
2022/07/12 09:42:13;;;;;;;7.38;4.60;;;26.00;99.90;;;;;;4977813;28;20517;-65
2022/07/12 09:44:40;;;;;;;6.07;5.00;;;26.10;99.90;;;;;;4995483;28;20070;-65
2022/07/12 09:47:13;;;;;;;7.60;4.82;;;26.10;99.90;;;;;;4995912;28;20116;-65
2022/07/12 09:49:43;;;;;;;7.45;5.32;;;26.30;99.90;;;;;;4974709;28;20050;-65
2022/07/12 09:52:19;;;;;;;7.30;5.30;;;26.40;99.90;;;;;;4994217;28;20046;-65
2022/07/12 09:54:46;;;;;;;6.38;5.35;;;26.50;99.90;;;;;;4978211;28;20396;-64
2022/07/12 09:57:33;;;;;;;10.15;6.30;;;26.60;99.90;;;;;;4977962;28;20047;-65
2022/07/12 10:00:01;;;;;;;7.05;3.15;;;26.70;99.90;;;;;;4995308;28;20046;-65
2022/07/12 10:02:27;;;;;;;4.20;3.10;;;26.90;99.90;;;;;;4995186;28;20046;-64
2022/07/12 10:04:54;;;;;;;4.50;3.45;;;27.10;99.90;;;;;;4958250;28;20059;-65
2022/07/12 10:07:21;;;;;;;4.45;3.60;;;27.40;99.90;;;;;;4974483;28;20485;-64
2022/07/12 10:09:54;;;;;;;5.07;3.33;;;27.50;99.90;;;;;;4975874;28;20039;-64
2022/07/12 10:12:22;;;;;;;4.18;2.83;;;27.40;99.90;;;;;;4958553;28;20046;-65
2022/07/12 10:15:19;;;;;;;3.70;2.63;;;27.10;99.90;;;;;;4974338;28;20050;-65
2022/07/12 10:17:53;;;;;;;3.47;2.75;;;26.90;99.90;;;;;;4959695;28;20082;-65
2022/07/12 10:20:24;;;;;;;4.05;2.58;;;27.10;99.90;;;;;;4972152;28;20046;-65
2022/07/12 10:23:16;;;;;;;5.57;2.45;;;27.30;99.90;;;;;;4958044;28;20105;-66
2022/07/12 10:25:42;;;;;;;3.95;3.15;;;27.40;99.90;;;;;;4945413;28;20074;-64
2022/07/12 10:28:08;;;;;;;3.58;2.65;;;27.40;99.90;;;;;;4974184;28;20042;-62
2022/07/12 10:30:48;;;;;;;5.13;2.20;;;27.40;99.90;;;;;;4975504;28;20089;-65
2022/07/12 10:33:23;;;;;;;3.35;1.70;;;27.40;99.90;;;;;;4975414;28;20122;-64
2022/07/12 10:36:07;;;;;;;2.83;1.75;;;27.20;99.90;;;;;;4974321;28;20438;-64
2022/07/12 10:38:34;;;;;;;3.53;1.83;;;27.00;99.90;;;;;;4974265;28;20113;-63
2022/07/12 10:41:20;;;;;;;5.03;1.98;;;27.10;99.90;;;;;;4973788;28;20038;-65
2022/07/12 10:44:04;;;;;;;3.05;2.10;;;27.30;99.90;;;;;;4976467;28;20057;-65
2022/07/12 10:46:31;;;;;;;3.53;1.90;;;27.30;99.90;;;;;;4976877;28;20041;-65
2022/07/12 10:49:26;;;;;;;3.10;2.05;;;27.20;99.90;;;;;;4977000;28;20042;-64
2022/07/12 10:52:10;;;;;;;4.60;2.00;;;26.90;99.90;;;;;;4974587;28;20390;-65
2022/07/12 10:54:41;;;;;;;4.75;1.77;;;26.90;99.90;;;;;;4976864;28;20042;-64
2022/07/12 10:57:07;;;;;;;3.15;2.13;;;26.80;99.90;;;;;;4994187;28;20042;-64
2022/07/12 10:59:35;;;;;;;2.85;1.70;;;26.70;99.90;;;;;;4994547;28;20042;-65
2022/07/12 11:02:02;;;;;;;3.03;2.28;;;26.70;99.90;;;;;;4976688;28;20050;-65
2022/07/12 11:04:28;;;;;;;2.25;2.03;;;26.80;99.90;;;;;;4976590;28;20089;-65
2022/07/12 11:06:57;;;;;;;2.92;2.05;;;26.90;99.90;;;;;;4994076;28;20500;-65
2022/07/12 11:09:24;;;;;;;4.57;2.63;;;27.10;99.90;;;;;;4976458;28;20043;-65
2022/07/12 11:11:51;;;;;;;5.05;2.33;;;27.20;99.90;;;;;;4976496;28;20046;-64
2022/07/12 11:14:32;;;;;;;2.40;2.17;;;27.20;99.90;;;;;;4976603;28;20097;-65
2022/07/12 11:16:59;;;;;;;6.60;2.78;;;27.40;99.90;;;;;;4976330;28;20543;-64
2022/07/12 11:19:29;;;;;;;4.45;2.72;;;27.60;99.90;;;;;;4993958;28;20121;-66
2022/07/12 11:21:57;;;;;;;2.78;2.40;;;27.80;99.90;;;;;;4973866;28;20046;-66
2022/07/12 11:24:30;;;;;;;4.22;2.60;;;27.90;99.50;;;;;;4976613;28;20416;-66
2022/07/12 11:26:56;;;;;;;3.33;2.20;;;28.10;99.00;;;;;;4993595;28;20507;-66
2022/07/12 11:29:23;;;;;;;3.33;2.10;;;28.20;98.20;;;;;;4976279;28;20048;-66
2022/07/12 11:31:49;;;;;;;2.78;1.70;;;28.40;97.40;;;;;;4976094;28;20073;-65
2022/07/12 11:34:25;;;;;;;3.38;2.13;;;28.50;97.80;;;;;;4976145;28;20077;-63
2022/07/12 11:36:53;;;;;;;2.80;1.10;;;28.60;98.10;;;;;;4959944;28;20050;-65
2022/07/12 11:39:37;;;;;;;2.53;1.80;;;28.70;96.70;;;;;;4976103;28;20093;-65
2022/07/12 11:42:05;;;;;;;2.08;1.20;;;28.80;96.90;;;;;;4975994;28;20062;-66
2022/07/12 11:44:51;;;;;;;2.70;1.15;;;28.80;95.30;;;;;;4976190;28;20039;-66
2022/07/12 11:47:18;;;;;;;2.95;1.77;;;28.90;96.80;;;;;;4993141;28;20042;-66
2022/07/12 11:49:51;;;;;;;2.25;1.48;;;29.20;96.80;;;;;;4975138;28;20039;-66
2022/07/12 11:52:18;;;;;;;2.28;1.50;;;29.40;95.90;;;;;;4976049;28;20112;-62
2022/07/12 11:54:49;;;;;;;2.40;1.38;;;29.50;94.10;;;;;;4976044;28;20081;-63
2022/07/12 11:57:18;;;;;;;1.50;1.13;;;29.40;93.00;;;;;;4975757;28;20085;-64
2022/07/12 11:59:44;;;;;;;3.53;1.20;;;29.30;93.90;;;;;;4993078;28;20034;-66
2022/07/12 12:02:16;;;;;;;3.75;1.45;;;29.40;94.00;;;;;;4975682;28;20409;-65
2022/07/12 12:04:48;;;;;;;2.88;1.45;;;29.40;93.80;;;;;;4988720;28;20060;-65
2022/07/12 12:07:19;;;;;;;2.03;1.58;;;29.40;92.00;;;;;;4995249;28;20045;-64
2022/07/12 12:10:03;;;;;;;3.63;1.60;;;29.30;90.90;;;;;;5012522;28;20034;-63
2022/07/12 12:12:46;;;;;;;3.92;1.70;;;29.10;90.30;;;;;;5012695;28;20034;-66
2022/07/12 12:15:24;;;;;;;2.05;1.27;;;28.90;91.10;;;;;;5012612;28;20121;-65
2022/07/12 12:17:59;;;;;;;3.73;1.90;;;28.80;92.10;;;;;;4994818;28;20508;-65
2022/07/12 12:20:38;;;;;;;2.03;1.52;;;28.70;91.40;;;;;;4976445;28;20288;-65
2022/07/12 12:23:18;;;;;;;2.72;1.38;;;28.60;90.90;;;;;;5012180;28;20547;-64
2022/07/12 12:25:45;;;;;;;2.15;1.20;;;28.60;91.60;;;;;;5012577;28;20069;-65
2022/07/12 12:28:12;;;;;;;3.33;1.20;;;28.60;91.70;;;;;;4978762;28;20052;-65
2022/07/12 12:30:55;;;;;;;2.03;1.50;;;28.60;92.60;;;;;;4994847;28;20399;-65
2022/07/12 12:33:38;;;;;;;3.25;1.23;;;28.70;91.70;;;;;;4994657;28;20038;-64
2022/07/12 12:36:23;;;;;;;3.78;1.45;;;28.70;91.80;;;;;;5012287;28;20042;-64
2022/07/12 12:38:51;;;;;;;3.13;1.08;;;28.70;93.20;;;;;;4994805;28;20038;-64
2022/07/12 12:41:19;;;;;;;2.42;1.13;;;28.80;92.10;;;;;;4978154;28;20081;-64
2022/07/12 12:43:45;;;;;;;2.03;1.10;;;28.80;90.50;;;;;;4992093;28;20048;-65
2022/07/12 12:46:11;;;;;;;3.08;1.02;;;28.60;88.50;;;;;;4992437;28;20409;-64
2022/07/12 12:48:37;;;;;;;4.07;0.80;;;28.40;88.30;;;;;;4974955;28;20053;-65
2022/07/12 12:51:10;;;;;;;1.95;0.88;;;28.20;91.10;;;;;;4972657;28;20046;-64
2022/07/12 12:53:39;;;;;;;2.33;1.20;;;28.20;90.90;;;;;;4992324;28;20062;-65
2022/07/12 12:56:14;;;;;;;3.17;1.20;;;28.10;89.60;;;;;;4992299;28;20038;-65
2022/07/12 12:58:41;;;;;;;1.80;1.10;;;27.90;90.10;;;;;;4975146;28;20270;-65
2022/07/12 13:01:08;;;;;;;3.88;0.90;;;27.80;91.00;;;;;;4992446;28;20030;-65
2022/07/12 13:03:34;;;;;;;4.03;1.10;;;27.70;91.00;;;;;;4974377;28;20535;-64
2022/07/12 13:06:01;;;;;;;4.25;2.03;;;27.70;91.90;;;;;;4992476;28;20493;-64